sensor_id;sensor_type;location;lat;lon;timestamp;pressure;altitude;pressure_sealevel;temperature;humidity
77240;BME280;66258;53.170;-2.240;2023-05-17T00:01:38;101566.47;;;17.69;97.09
77240;BME280;66258;53.170;-2.240;2023-05-17T00:04:05;101565.91;;;17.51;97.93
77240;BME280;66258;53.170;-2.240;2023-05-17T00:06:34;101560.84;;;17.40;98.96
77240;BME280;66258;53.170;-2.240;2023-05-17T00:09:01;101555.09;;;17.58;98.63
77240;BME280;66258;53.170;-2.240;2023-05-17T00:11:28;101562.75;;;17.62;98.05
77240;BME280;66258;53.170;-2.240;2023-05-17T00:13:56;101549.19;;;17.69;97.28
77240;BME280;66258;53.170;-2.240;2023-05-17T00:16:23;101550.91;;;17.70;95.80
77240;BME280;66258;53.170;-2.240;2023-05-17T00:18:49;101552.78;;;17.69;95.94
77240;BME280;66258;53.170;-2.240;2023-05-17T00:21:17;101559.69;;;17.65;96.33
77240;BME280;66258;53.170;-2.240;2023-05-17T00:23:46;101560.06;;;17.54;96.55
77240;BME280;66258;53.170;-2.240;2023-05-17T00:26:13;101563.06;;;17.44;96.81
77240;BME280;66258;53.170;-2.240;2023-05-17T00:28:40;101551.13;;;17.37;97.08
77240;BME280;66258;53.170;-2.240;2023-05-17T00:31:08;101551.19;;;17.52;97.16
77240;BME280;66258;53.170;-2.240;2023-05-17T00:33:35;101558.31;;;17.38;97.36
77240;BME280;66258;53.170;-2.240;2023-05-17T00:36:04;101562.75;;;17.62;96.28
77240;BME280;66258;53.170;-2.240;2023-05-17T00:38:31;101553.53;;;17.32;96.64
77240;BME280;66258;53.170;-2.240;2023-05-17T00:41:00;101563.25;;;17.43;97.72
77240;BME280;66258;53.170;-2.240;2023-05-17T00:43:27;101558.84;;;17.57;96.44
77240;BME280;66258;53.170;-2.240;2023-05-17T00:45:55;101563.66;;;17.55;96.17
77240;BME280;66258;53.170;-2.240;2023-05-17T00:48:23;101557.69;;;17.51;96.49
77240;BME280;66258;53.170;-2.240;2023-05-17T00:50:51;101551.00;;;17.53;96.36
77240;BME280;66258;53.170;-2.240;2023-05-17T00:53:19;101551.84;;;17.54;96.07
77240;BME280;66258;53.170;-2.240;2023-05-17T00:55:48;101552.69;;;17.32;97.01
77240;BME280;66258;53.170;-2.240;2023-05-17T00:58:17;101552.69;;;17.32;96.96
77240;BME280;66258;53.170;-2.240;2023-05-17T01:00:44;101558.84;;;17.34;97.08
77240;BME280;66258;53.170;-2.240;2023-05-17T01:03:12;101548.59;;;17.28;97.38
77240;BME280;66258;53.170;-2.240;2023-05-17T01:05:40;101564.25;;;17.19;97.70
77240;BME280;66258;53.170;-2.240;2023-05-17T01:08:07;101565.69;;;17.30;96.37
77240;BME280;66258;53.170;-2.240;2023-05-17T01:10:40;101568.88;;;17.18;96.78
77240;BME280;66258;53.170;-2.240;2023-05-17T01:13:14;101560.16;;;17.15;97.23
77240;BME280;66258;53.170;-2.240;2023-05-17T01:15:54;101557.25;;;17.16;97.61
77240;BME280;66258;53.170;-2.240;2023-05-17T01:18:30;101553.66;;;17.16;97.23
77240;BME280;66258;53.170;-2.240;2023-05-17T01:21:08;101562.53;;;17.18;97.19
77240;BME280;66258;53.170;-2.240;2023-05-17T01:23:47;101560.97;;;17.24;97.04
77240;BME280;66258;53.170;-2.240;2023-05-17T01:26:33;101556.81;;;17.28;97.26
77240;BME280;66258;53.170;-2.240;2023-05-17T01:29:03;101556.53;;;17.23;97.38
77240;BME280;66258;53.170;-2.240;2023-05-17T01:31:32;101553.47;;;17.17;98.25
77240;BME280;66258;53.170;-2.240;2023-05-17T01:33:59;101549.25;;;17.07;98.40
77240;BME280;66258;53.170;-2.240;2023-05-17T01:36:27;101551.22;;;16.90;99.11
77240;BME280;66258;53.170;-2.240;2023-05-17T01:38:55;101561.66;;;16.87;99.55
77240;BME280;66258;53.170;-2.240;2023-05-17T01:41:26;101558.00;;;17.02;99.36
77240;BME280;66258;53.170;-2.240;2023-05-17T01:44:03;101556.91;;;17.11;97.99
77240;BME280;66258;53.170;-2.240;2023-05-17T01:46:38;101556.75;;;17.13;97.84
77240;BME280;66258;53.170;-2.240;2023-05-17T01:49:10;101558.66;;;17.04;98.50
77240;BME280;66258;53.170;-2.240;2023-05-17T01:51:46;101561.22;;;17.06;98.46
77240;BME280;66258;53.170;-2.240;2023-05-17T01:54:17;101552.03;;;16.99;98.83
77240;BME280;66258;53.170;-2.240;2023-05-17T01:56:50;101548.81;;;16.95;98.79
77240;BME280;66258;53.170;-2.240;2023-05-17T01:59:24;101553.78;;;16.83;99.12
77240;BME280;66258;53.170;-2.240;2023-05-17T02:01:53;101558.91;;;16.87;99.39
77240;BME280;66258;53.170;-2.240;2023-05-17T02:04:22;101559.75;;;16.95;98.82
77240;BME280;66258;53.170;-2.240;2023-05-17T02:06:52;101568.09;;;17.02;98.50
77240;BME280;66258;53.170;-2.240;2023-05-17T02:09:19;101563.78;;;17.07;98.03
77240;BME280;66258;53.170;-2.240;2023-05-17T02:11:47;101563.59;;;17.09;98.05
77240;BME280;66258;53.170;-2.240;2023-05-17T02:14:15;101565.72;;;16.99;99.08
77240;BME280;66258;53.170;-2.240;2023-05-17T02:16:44;101568.97;;;16.94;99.46
77240;BME280;66258;53.170;-2.240;2023-05-17T02:19:11;101565.81;;;16.74;99.67
77240;BME280;66258;53.170;-2.240;2023-05-17T02:21:38;101570.13;;;16.61;100.00
77240;BME280;66258;53.170;-2.240;2023-05-17T02:24:05;101582.59;;;16.63;100.00
77240;BME280;66258;53.170;-2.240;2023-05-17T02:26:32;101579.34;;;16.68;100.00
77240;BME280;66258;53.170;-2.240;2023-05-17T02:28:59;101578.66;;;16.66;100.00
77240;BME280;66258;53.170;-2.240;2023-05-17T02:31:27;101581.38;;;16.74;100.00
77240;BME280;66258;53.170;-2.240;2023-05-17T02:33:56;101582.25;;;16.58;100.00
77240;BME280;66258;53.170;-2.240;2023-05-17T02:36:24;101580.22;;;16.52;100.00
77240;BME280;66258;53.170;-2.240;2023-05-17T02:38:51;101588.06;;;16.55;100.00
77240;BME280;66258;53.170;-2.240;2023-05-17T02:41:18;101579.03;;;16.46;100.00
77240;BME280;66258;53.170;-2.240;2023-05-17T02:43:46;101582.78;;;16.45;100.00
77240;BME280;66258;53.170;-2.240;2023-05-17T02:46:13;101586.00;;;16.57;100.00
77240;BME280;66258;53.170;-2.240;2023-05-17T02:48:41;101580.56;;;16.57;100.00
77240;BME280;66258;53.170;-2.240;2023-05-17T02:51:10;101583.81;;;16.53;100.00
77240;BME280;66258;53.170;-2.240;2023-05-17T02:53:37;101588.75;;;16.49;100.00
77240;BME280;66258;53.170;-2.240;2023-05-17T02:56:05;101586.69;;;16.67;100.00
77240;BME280;66258;53.170;-2.240;2023-05-17T02:58:32;101585.25;;;16.88;100.00
77240;BME280;66258;53.170;-2.240;2023-05-17T03:00:59;101587.00;;;17.11;100.00
77240;BME280;66258;53.170;-2.240;2023-05-17T03:03:26;101575.72;;;17.14;100.00
77240;BME280;66258;53.170;-2.240;2023-05-17T03:05:54;101581.00;;;17.16;100.00
77240;BME280;66258;53.170;-2.240;2023-05-17T03:08:27;101590.59;;;17.12;100.00
77240;BME280;66258;53.170;-2.240;2023-05-17T03:10:54;101588.75;;;17.04;100.00
77240;BME280;66258;53.170;-2.240;2023-05-17T03:13:22;101587.00;;;17.11;100.00
77240;BME280;66258;53.170;-2.240;2023-05-17T03:15:49;101581.59;;;17.03;100.00
77240;BME280;66258;53.170;-2.240;2023-05-17T03:18:17;101583.28;;;17.04;100.00
77240;BME280;66258;53.170;-2.240;2023-05-17T03:20:44;101590.44;;;17.13;100.00
77240;BME280;66258;53.170;-2.240;2023-05-17T03:23:12;101572.28;;;17.21;100.00
77240;BME280;66258;53.170;-2.240;2023-05-17T03:25:41;101577.75;;;17.21;100.00
77240;BME280;66258;53.170;-2.240;2023-05-17T03:28:08;101576.81;;;17.28;100.00
77240;BME280;66258;53.170;-2.240;2023-05-17T03:30:35;101579.66;;;17.43;100.00
77240;BME280;66258;53.170;-2.240;2023-05-17T03:33:05;101578.13;;;17.40;100.00
77240;BME280;66258;53.170;-2.240;2023-05-17T03:35:33;101581.56;;;17.42;100.00
77240;BME280;66258;53.170;-2.240;2023-05-17T03:38:00;101572.50;;;17.42;100.00
77240;BME280;66258;53.170;-2.240;2023-05-17T03:40:28;101578.50;;;17.37;100.00
77240;BME280;66258;53.170;-2.240;2023-05-17T03:42:56;101580.78;;;17.26;100.00
77240;BME280;66258;53.170;-2.240;2023-05-17T03:45:23;101591.28;;;17.14;100.00
77240;BME280;66258;53.170;-2.240;2023-05-17T03:47:51;101585.00;;;17.05;100.00
77240;BME280;66258;53.170;-2.240;2023-05-17T03:50:19;101585.53;;;17.01;100.00
77240;BME280;66258;53.170;-2.240;2023-05-17T03:52:46;101583.66;;;17.01;100.00
77240;BME280;66258;53.170;-2.240;2023-05-17T03:55:13;101582.03;;;17.15;100.00
77240;BME280;66258;53.170;-2.240;2023-05-17T03:57:40;101581.50;;;17.20;100.00
77240;BME280;66258;53.170;-2.240;2023-05-17T04:00:10;101584.28;;;17.11;100.00
77240;BME280;66258;53.170;-2.240;2023-05-17T04:02:37;101585.09;;;17.20;100.00
77240;BME280;66258;53.170;-2.240;2023-05-17T04:05:05;101588.72;;;17.12;100.00
77240;BME280;66258;53.170;-2.240;2023-05-17T04:07:33;101587.88;;;17.12;100.00
77240;BME280;66258;53.170;-2.240;2023-05-17T04:10:01;101590.28;;;17.07;100.00
77240;BME280;66258;53.170;-2.240;2023-05-17T04:12:28;101592.13;;;17.14;100.00
77240;BME280;66258;53.170;-2.240;2023-05-17T04:14:54;101591.50;;;17.04;100.00
77240;BME280;66258;53.170;-2.240;2023-05-17T04:17:23;101594.44;;;16.95;100.00
77240;BME280;66258;53.170;-2.240;2023-05-17T04:19:50;101587.78;;;16.97;100.00
77240;BME280;66258;53.170;-2.240;2023-05-17T04:22:18;101584.38;;;16.95;100.00
77240;BME280;66258;53.170;-2.240;2023-05-17T04:24:46;101575.47;;;16.93;100.00
77240;BME280;66258;53.170;-2.240;2023-05-17T04:27:13;101590.09;;;17.08;100.00
77240;BME280;66258;53.170;-2.240;2023-05-17T04:29:40;101592.81;;;17.16;100.00
77240;BME280;66258;53.170;-2.240;2023-05-17T04:32:07;101589.91;;;17.18;100.00
77240;BME280;66258;53.170;-2.240;2023-05-17T04:34:36;101592.09;;;17.23;100.00
77240;BME280;66258;53.170;-2.240;2023-05-17T04:37:03;101590.03;;;17.25;100.00
77240;BME280;66258;53.170;-2.240;2023-05-17T04:39:33;101591.50;;;17.35;100.00
77240;BME280;66258;53.170;-2.240;2023-05-17T04:42:00;101586.00;;;17.43;100.00
77240;BME280;66258;53.170;-2.240;2023-05-17T04:44:27;101594.94;;;17.29;100.00
77240;BME280;66258;53.170;-2.240;2023-05-17T04:46:55;101601.97;;;17.01;100.00
77240;BME280;66258;53.170;-2.240;2023-05-17T04:49:22;101595.47;;;17.02;100.00
77240;BME280;66258;53.170;-2.240;2023-05-17T04:51:51;101594.00;;;17.22;100.00
77240;BME280;66258;53.170;-2.240;2023-05-17T04:54:19;101594.41;;;17.34;100.00
77240;BME280;66258;53.170;-2.240;2023-05-17T04:56:46;101593.63;;;17.48;100.00
77240;BME280;66258;53.170;-2.240;2023-05-17T04:59:13;101595.16;;;17.50;100.00
77240;BME280;66258;53.170;-2.240;2023-05-17T05:01:41;101598.03;;;17.65;100.00
77240;BME280;66258;53.170;-2.240;2023-05-17T05:04:08;101594.91;;;17.68;100.00
77240;BME280;66258;53.170;-2.240;2023-05-17T05:06:36;101606.94;;;17.59;100.00
77240;BME280;66258;53.170;-2.240;2023-05-17T05:09:05;101609.66;;;17.59;100.00
77240;BME280;66258;53.170;-2.240;2023-05-17T05:11:32;101611.78;;;17.49;100.00
77240;BME280;66258;53.170;-2.240;2023-05-17T05:14:00;101596.13;;;17.35;100.00
77240;BME280;66258;53.170;-2.240;2023-05-17T05:16:27;101603.00;;;17.31;100.00
77240;BME280;66258;53.170;-2.240;2023-05-17T05:18:55;101621.22;;;17.07;100.00
77240;BME280;66258;53.170;-2.240;2023-05-17T05:21:22;101619.22;;;17.01;100.00
77240;BME280;66258;53.170;-2.240;2023-05-17T05:23:50;101626.28;;;16.88;100.00
77240;BME280;66258;53.170;-2.240;2023-05-17T05:26:18;101629.75;;;17.21;100.00
77240;BME280;66258;53.170;-2.240;2023-05-17T05:28:46;101626.69;;;17.15;100.00
77240;BME280;66258;53.170;-2.240;2023-05-17T05:31:13;101624.69;;;17.40;100.00
77240;BME280;66258;53.170;-2.240;2023-05-17T05:33:40;101621.75;;;17.42;100.00
77240;BME280;66258;53.170;-2.240;2023-05-17T05:36:08;101629.72;;;17.51;100.00
77240;BME280;66258;53.170;-2.240;2023-05-17T05:38:36;101634.25;;;17.44;100.00
77240;BME280;66258;53.170;-2.240;2023-05-17T05:41:03;101638.97;;;17.50;100.00
77240;BME280;66258;53.170;-2.240;2023-05-17T05:43:32;101645.19;;;17.98;100.00
77240;BME280;66258;53.170;-2.240;2023-05-17T05:46:00;101646.78;;;18.30;100.00
77240;BME280;66258;53.170;-2.240;2023-05-17T05:48:27;101660.72;;;18.81;100.00
77240;BME280;66258;53.170;-2.240;2023-05-17T05:50:54;101660.41;;;19.35;100.00
77240;BME280;66258;53.170;-2.240;2023-05-17T05:53:22;101664.56;;;19.60;100.00
77240;BME280;66258;53.170;-2.240;2023-05-17T05:55:49;101669.53;;;19.50;100.00
77240;BME280;66258;53.170;-2.240;2023-05-17T05:58:17;101673.47;;;19.47;100.00
77240;BME280;66258;53.170;-2.240;2023-05-17T06:00:47;101676.75;;;19.72;100.00
77240;BME280;66258;53.170;-2.240;2023-05-17T06:03:14;101679.19;;;19.82;100.00
77240;BME280;66258;53.170;-2.240;2023-05-17T06:05:41;101678.22;;;19.89;98.13
77240;BME280;66258;53.170;-2.240;2023-05-17T06:08:08;101679.69;;;19.71;97.82
77240;BME280;66258;53.170;-2.240;2023-05-17T06:10:36;101684.47;;;19.83;98.11
77240;BME280;66258;53.170;-2.240;2023-05-17T06:13:03;101696.53;;;20.25;98.33
77240;BME280;66258;53.170;-2.240;2023-05-17T06:15:31;101696.25;;;20.63;95.06
77240;BME280;66258;53.170;-2.240;2023-05-17T06:18:01;101701.91;;;20.82;94.24
77240;BME280;66258;53.170;-2.240;2023-05-17T06:20:29;101706.69;;;20.95;92.25
77240;BME280;66258;53.170;-2.240;2023-05-17T06:22:57;101714.00;;;21.16;92.84
77240;BME280;66258;53.170;-2.240;2023-05-17T06:25:24;101718.78;;;21.76;91.59
77240;BME280;66258;53.170;-2.240;2023-05-17T06:27:51;101721.06;;;22.67;87.88
77240;BME280;66258;53.170;-2.240;2023-05-17T06:30:19;101725.13;;;22.64;82.43
77240;BME280;66258;53.170;-2.240;2023-05-17T06:32:47;101731.28;;;22.59;80.85
77240;BME280;66258;53.170;-2.240;2023-05-17T06:35:15;101730.22;;;22.41;81.15
77240;BME280;66258;53.170;-2.240;2023-05-17T06:37:43;101733.19;;;22.39;79.70
77240;BME280;66258;53.170;-2.240;2023-05-17T06:40:11;101735.31;;;22.57;79.17
77240;BME280;66258;53.170;-2.240;2023-05-17T06:42:43;101729.38;;;22.40;78.92
77240;BME280;66258;53.170;-2.240;2023-05-17T06:45:10;101727.78;;;21.98;80.59
77240;BME280;66258;53.170;-2.240;2023-05-17T06:47:38;101732.97;;;21.73;82.40
77240;BME280;66258;53.170;-2.240;2023-05-17T06:50:06;101735.13;;;21.84;82.69
77240;BME280;66258;53.170;-2.240;2023-05-17T06:52:36;101738.72;;;21.85;82.42
77240;BME280;66258;53.170;-2.240;2023-05-17T06:55:04;101734.09;;;21.92;82.62
77240;BME280;66258;53.170;-2.240;2023-05-17T06:57:32;101729.94;;;22.09;84.01
77240;BME280;66258;53.170;-2.240;2023-05-17T06:59:59;101738.28;;;22.36;81.81
77240;BME280;66258;53.170;-2.240;2023-05-17T07:02:27;101729.31;;;22.27;80.63
77240;BME280;66258;53.170;-2.240;2023-05-17T07:04:54;101737.09;;;21.97;81.02
77240;BME280;66258;53.170;-2.240;2023-05-17T07:07:22;101739.50;;;21.59;83.20
77240;BME280;66258;53.170;-2.240;2023-05-17T07:09:51;101742.09;;;21.33;84.68
77240;BME280;66258;53.170;-2.240;2023-05-17T07:12:18;101745.03;;;20.97;88.15
77240;BME280;66258;53.170;-2.240;2023-05-17T07:14:46;101735.78;;;20.83;89.52
77240;BME280;66258;53.170;-2.240;2023-05-17T07:17:13;101738.19;;;21.20;91.26
77240;BME280;66258;53.170;-2.240;2023-05-17T07:19:40;101730.34;;;21.17;90.89
77240;BME280;66258;53.170;-2.240;2023-05-17T07:22:08;101736.03;;;21.16;89.96
77240;BME280;66258;53.170;-2.240;2023-05-17T07:24:35;101733.28;;;21.16;90.25
77240;BME280;66258;53.170;-2.240;2023-05-17T07:27:05;101737.00;;;20.74;92.25
77240;BME280;66258;53.170;-2.240;2023-05-17T07:29:32;101739.47;;;20.90;93.43
77240;BME280;66258;53.170;-2.240;2023-05-17T07:32:00;101750.78;;;21.30;93.83
77240;BME280;66258;53.170;-2.240;2023-05-17T07:34:28;101741.38;;;21.52;91.34
77240;BME280;66258;53.170;-2.240;2023-05-17T07:36:56;101745.16;;;21.51;89.95
77240;BME280;66258;53.170;-2.240;2023-05-17T07:39:23;101751.63;;;21.71;89.80
77240;BME280;66258;53.170;-2.240;2023-05-17T07:41:50;101760.13;;;21.83;88.69
77240;BME280;66258;53.170;-2.240;2023-05-17T07:44:19;101755.59;;;21.62;87.29
77240;BME280;66258;53.170;-2.240;2023-05-17T07:46:47;101748.41;;;21.26;89.50
77240;BME280;66258;53.170;-2.240;2023-05-17T07:49:14;101752.84;;;21.62;88.99
77240;BME280;66258;53.170;-2.240;2023-05-17T07:51:42;101756.97;;;21.38;89.93
77240;BME280;66258;53.170;-2.240;2023-05-17T07:54:11;101759.75;;;21.92;88.33
77240;BME280;66258;53.170;-2.240;2023-05-17T07:56:38;101751.63;;;22.19;87.23
77240;BME280;66258;53.170;-2.240;2023-05-17T10:06:05;101757.16;;;24.40;71.55
77240;BME280;66258;53.170;-2.240;2023-05-17T10:08:35;101746.53;;;24.62;64.46
77240;BME280;66258;53.170;-2.240;2023-05-17T10:11:07;101754.97;;;25.42;62.77
77240;BME280;66258;53.170;-2.240;2023-05-17T10:13:42;101751.94;;;25.68;59.79
77240;BME280;66258;53.170;-2.240;2023-05-17T10:16:11;101756.22;;;26.30;51.44
77240;BME280;66258;53.170;-2.240;2023-05-17T10:18:39;101751.84;;;26.64;51.51
77240;BME280;66258;53.170;-2.240;2023-05-17T10:21:09;101748.78;;;26.13;53.57
77240;BME280;66258;53.170;-2.240;2023-05-17T10:23:38;101748.59;;;25.96;57.37
77240;BME280;66258;53.170;-2.240;2023-05-17T10:26:07;101738.66;;;24.90;56.22
77240;BME280;66258;53.170;-2.240;2023-05-17T10:28:35;101735.00;;;23.57;60.50
77240;BME280;66258;53.170;-2.240;2023-05-17T10:31:03;101735.72;;;23.26;63.20
77240;BME280;66258;53.170;-2.240;2023-05-17T10:33:31;101726.19;;;22.96;63.71
77240;BME280;66258;53.170;-2.240;2023-05-17T10:36:01;101725.53;;;22.68;63.92
77240;BME280;66258;53.170;-2.240;2023-05-17T10:38:30;101730.22;;;22.54;65.32
77240;BME280;66258;53.170;-2.240;2023-05-17T10:41:09;101724.47;;;23.15;66.98
77240;BME280;66258;53.170;-2.240;2023-05-17T10:43:38;101730.00;;;23.79;63.00
77240;BME280;66258;53.170;-2.240;2023-05-17T10:46:11;101734.41;;;23.93;61.61
77240;BME280;66258;53.170;-2.240;2023-05-17T10:48:41;101729.44;;;24.47;65.73
77240;BME280;66258;53.170;-2.240;2023-05-17T10:51:10;101729.88;;;24.93;55.25
77240;BME280;66258;53.170;-2.240;2023-05-17T10:54:18;101732.34;;;24.77;52.22
77240;BME280;66258;53.170;-2.240;2023-05-17T10:56:48;101738.09;;;24.25;58.63
77240;BME280;66258;53.170;-2.240;2023-05-17T10:59:17;101734.13;;;24.08;62.09
77240;BME280;66258;53.170;-2.240;2023-05-17T11:01:50;101732.47;;;23.94;61.06
77240;BME280;66258;53.170;-2.240;2023-05-17T11:04:22;101716.97;;;23.42;63.05
77240;BME280;66258;53.170;-2.240;2023-05-17T11:06:54;101722.94;;;23.32;60.87
77240;BME280;66258;53.170;-2.240;2023-05-17T11:09:43;101719.47;;;23.63;64.02
77240;BME280;66258;53.170;-2.240;2023-05-17T11:12:12;101718.84;;;23.99;60.66
77240;BME280;66258;53.170;-2.240;2023-05-17T11:14:46;101715.63;;;24.02;59.93
77240;BME280;66258;53.170;-2.240;2023-05-17T11:17:15;101718.94;;;23.79;58.13
77240;BME280;66258;53.170;-2.240;2023-05-17T11:19:54;101710.78;;;23.91;57.02
77240;BME280;66258;53.170;-2.240;2023-05-17T11:22:22;101711.84;;;24.84;58.33
77240;BME280;66258;53.170;-2.240;2023-05-17T11:24:55;101716.09;;;25.48;53.45
77240;BME280;66258;53.170;-2.240;2023-05-17T11:27:23;101715.88;;;25.13;54.86
77240;BME280;66258;53.170;-2.240;2023-05-17T11:29:50;101698.84;;;23.97;57.63
77240;BME280;66258;53.170;-2.240;2023-05-17T11:32:17;101706.09;;;23.47;62.80
77240;BME280;66258;53.170;-2.240;2023-05-17T11:34:51;101713.19;;;23.16;62.07
77240;BME280;66258;53.170;-2.240;2023-05-17T11:37:24;101707.41;;;23.38;61.86
77240;BME280;66258;53.170;-2.240;2023-05-17T11:40:05;101713.09;;;23.49;58.51
77240;BME280;66258;53.170;-2.240;2023-05-17T11:42:33;101717.91;;;23.74;56.97
77240;BME280;66258;53.170;-2.240;2023-05-17T11:45:00;101725.13;;;23.81;59.02
77240;BME280;66258;53.170;-2.240;2023-05-17T11:47:28;101723.31;;;23.55;57.76
77240;BME280;66258;53.170;-2.240;2023-05-17T11:50:00;101723.72;;;23.59;60.46
77240;BME280;66258;53.170;-2.240;2023-05-17T11:52:27;101716.25;;;23.66;64.01
77240;BME280;66258;53.170;-2.240;2023-05-17T11:54:56;101721.44;;;23.36;66.75
77240;BME280;66258;53.170;-2.240;2023-05-17T11:57:30;101719.41;;;22.92;67.93
77240;BME280;66258;53.170;-2.240;2023-05-17T11:59:58;101710.72;;;22.82;70.17
77240;BME280;66258;53.170;-2.240;2023-05-17T12:02:27;101708.94;;;23.20;68.35
77240;BME280;66258;53.170;-2.240;2023-05-17T12:04:55;101707.34;;;23.51;68.08
77240;BME280;66258;53.170;-2.240;2023-05-17T12:07:23;101702.16;;;23.74;68.43
77240;BME280;66258;53.170;-2.240;2023-05-17T12:09:51;101712.88;;;23.64;68.03
77240;BME280;66258;53.170;-2.240;2023-05-17T12:12:19;101708.53;;;23.23;71.72
77240;BME280;66258;53.170;-2.240;2023-05-17T12:14:48;101708.88;;;23.47;72.23
77240;BME280;66258;53.170;-2.240;2023-05-17T12:17:22;101709.84;;;23.01;74.27
77240;BME280;66258;53.170;-2.240;2023-05-17T12:19:53;101704.31;;;22.88;74.85
77240;BME280;66258;53.170;-2.240;2023-05-17T12:22:21;101700.66;;;23.20;72.54
77240;BME280;66258;53.170;-2.240;2023-05-17T12:24:49;101711.84;;;23.52;70.08
77240;BME280;66258;53.170;-2.240;2023-05-17T12:27:24;101708.16;;;22.80;74.02
77240;BME280;66258;53.170;-2.240;2023-05-17T12:29:53;101706.56;;;23.37;71.87
77240;BME280;66258;53.170;-2.240;2023-05-17T12:32:20;101710.38;;;23.29;70.54
77240;BME280;66258;53.170;-2.240;2023-05-17T12:34:48;101713.50;;;23.66;72.33
77240;BME280;66258;53.170;-2.240;2023-05-17T12:37:15;101712.56;;;23.21;69.18
77240;BME280;66258;53.170;-2.240;2023-05-17T12:39:43;101713.44;;;23.02;73.04
77240;BME280;66258;53.170;-2.240;2023-05-17T12:42:10;101712.13;;;23.11;73.91
77240;BME280;66258;53.170;-2.240;2023-05-17T12:44:38;101717.88;;;23.09;73.13
77240;BME280;66258;53.170;-2.240;2023-05-17T12:47:08;101713.91;;;22.79;73.84
77240;BME280;66258;53.170;-2.240;2023-05-17T12:49:50;101720.63;;;23.09;71.34
77240;BME280;66258;53.170;-2.240;2023-05-17T12:52:17;101724.78;;;23.64;69.24
77240;BME280;66258;53.170;-2.240;2023-05-17T12:54:44;101725.97;;;23.75;68.27
77240;BME280;66258;53.170;-2.240;2023-05-17T12:57:12;101722.25;;;23.56;66.19
77240;BME280;66258;53.170;-2.240;2023-05-17T12:59:47;101719.47;;;23.56;66.08
77240;BME280;66258;53.170;-2.240;2023-05-17T13:02:18;101716.06;;;23.61;72.57
77240;BME280;66258;53.170;-2.240;2023-05-17T13:04:45;101714.72;;;23.70;69.17
77240;BME280;66258;53.170;-2.240;2023-05-17T13:07:20;101713.53;;;23.97;65.76
77240;BME280;66258;53.170;-2.240;2023-05-17T13:09:48;101709.47;;;24.00;63.16
77240;BME280;66258;53.170;-2.240;2023-05-17T13:12:18;101716.16;;;23.86;68.68
77240;BME280;66258;53.170;-2.240;2023-05-17T13:14:47;101703.34;;;23.40;66.98
77240;BME280;66258;53.170;-2.240;2023-05-17T13:17:18;101716.97;;;23.28;67.83
77240;BME280;66258;53.170;-2.240;2023-05-17T13:19:46;101709.03;;;22.81;68.36
77240;BME280;66258;53.170;-2.240;2023-05-17T13:22:13;101712.56;;;23.14;71.75
77240;BME280;66258;53.170;-2.240;2023-05-17T13:24:42;101712.13;;;23.17;68.38
77240;BME280;66258;53.170;-2.240;2023-05-17T13:27:09;101720.00;;;23.27;70.91
77240;BME280;66258;53.170;-2.240;2023-05-17T13:29:40;101714.22;;;23.35;69.95
77240;BME280;66258;53.170;-2.240;2023-05-17T13:32:08;101720.78;;;23.34;68.63
77240;BME280;66258;53.170;-2.240;2023-05-17T13:34:38;101716.59;;;23.18;67.09
77240;BME280;66258;53.170;-2.240;2023-05-17T13:37:06;101712.34;;;23.16;70.94
77240;BME280;66258;53.170;-2.240;2023-05-17T13:39:37;101714.22;;;23.28;71.27
77240;BME280;66258;53.170;-2.240;2023-05-17T13:42:05;101708.81;;;23.67;68.64
77240;BME280;66258;53.170;-2.240;2023-05-17T13:44:32;101706.69;;;23.62;66.64
77240;BME280;66258;53.170;-2.240;2023-05-17T13:46:59;101709.66;;;23.67;65.30
77240;BME280;66258;53.170;-2.240;2023-05-17T13:49:27;101717.66;;;23.82;67.53
77240;BME280;66258;53.170;-2.240;2023-05-17T13:51:55;101707.38;;;23.95;62.56
77240;BME280;66258;53.170;-2.240;2023-05-17T13:54:22;101711.06;;;24.21;63.49
77240;BME280;66258;53.170;-2.240;2023-05-17T13:56:49;101713.63;;;24.16;62.11
77240;BME280;66258;53.170;-2.240;2023-05-17T13:59:17;101706.91;;;24.37;60.32
77240;BME280;66258;53.170;-2.240;2023-05-17T14:01:44;101710.31;;;24.63;61.39
77240;BME280;66258;53.170;-2.240;2023-05-17T14:04:11;101705.97;;;24.49;61.13
77240;BME280;66258;53.170;-2.240;2023-05-17T14:06:40;101706.41;;;24.96;61.33
77240;BME280;66258;53.170;-2.240;2023-05-17T14:09:09;101702.84;;;25.14;55.39
77240;BME280;66258;53.170;-2.240;2023-05-17T14:11:38;101702.91;;;25.25;55.63
77240;BME280;66258;53.170;-2.240;2023-05-17T14:14:05;101707.22;;;25.21;54.73
77240;BME280;66258;53.170;-2.240;2023-05-17T14:16:33;101699.75;;;25.40;55.47
77240;BME280;66258;53.170;-2.240;2023-05-17T14:19:00;101701.56;;;25.34;54.02
77240;BME280;66258;53.170;-2.240;2023-05-17T14:21:30;101693.88;;;24.93;51.86
77240;BME280;66258;53.170;-2.240;2023-05-17T14:23:57;101686.59;;;25.17;52.38
77240;BME280;66258;53.170;-2.240;2023-05-17T14:26:26;101687.44;;;25.18;53.40
77240;BME280;66258;53.170;-2.240;2023-05-17T14:28:53;101684.81;;;25.05;55.79
77240;BME280;66258;53.170;-2.240;2023-05-17T14:31:20;101679.22;;;25.11;56.87
77240;BME280;66258;53.170;-2.240;2023-05-17T14:33:47;101677.19;;;25.37;57.31
77240;BME280;66258;53.170;-2.240;2023-05-17T14:36:14;101681.19;;;25.59;57.66
77240;BME280;66258;53.170;-2.240;2023-05-17T14:38:41;101685.94;;;25.88;54.78
77240;BME280;66258;53.170;-2.240;2023-05-17T14:41:08;101677.31;;;25.78;53.17
77240;BME280;66258;53.170;-2.240;2023-05-17T14:43:37;101677.81;;;25.20;54.35
77240;BME280;66258;53.170;-2.240;2023-05-17T14:46:03;101673.56;;;25.36;55.78
77240;BME280;66258;53.170;-2.240;2023-05-17T14:48:31;101677.13;;;25.43;55.22
77240;BME280;66258;53.170;-2.240;2023-05-17T14:50:58;101679.88;;;25.61;53.98
77240;BME280;66258;53.170;-2.240;2023-05-17T14:53:26;101678.44;;;25.77;55.07